Time;durP1;ratioP1;P1;durP2;ratioP2;P2;SDS_P1;SDS_P2;PMS_P1;PMS_P2;Temp;Humidity;BMP_temperature;BMP_pressure;BME280_temperature;BME280_humidity;BME280_pressure;Samples;Min_cycle;Max_cycle;Signal;HPM_P1;HPM_P2
2023/04/28 00:01:48;;;;;;;9.90;6.00;;;;;;;-128.00;-1.00;-1.00;97975;294;1004286;-28
2023/04/28 00:04:14;;;;;;;12.90;7.30;;;;;;;-128.00;-1.00;-1.00;97813;294;1003746;-34
2023/04/28 00:06:39;;;;;;;30.70;7.20;;;;;;;-128.00;-1.00;-1.00;97896;294;1005082;-29
2023/04/28 00:09:09;;;;;;;30.40;12.10;;;;;;;-128.00;-1.00;-1.00;97961;294;1005222;-29
2023/04/28 00:11:37;;;;;;;13.30;7.00;;;;;;;-128.00;-1.00;-1.00;97912;294;1002782;-28
2023/04/28 00:14:03;;;;;;;20.30;8.70;;;;;;;-128.00;-1.00;-1.00;98012;294;1003143;-33
2023/04/28 00:16:29;;;;;;;22.50;9.40;;;;;;;-128.00;-1.00;-1.00;97846;294;1003739;-32
2023/04/28 00:18:55;;;;;;;39.20;12.80;;;;;;;-128.00;-1.00;-1.00;98071;294;1002569;-32
2023/04/28 00:21:21;;;;;;;24.90;11.30;;;;;;;-128.00;-1.00;-1.00;97858;294;1004341;-32
2023/04/28 00:23:47;;;;;;;20.40;11.00;;;;;;;-128.00;-1.00;-1.00;97946;294;1003047;-28
2023/04/28 00:26:12;;;;;;;20.70;8.90;;;;;;;-128.00;-1.00;-1.00;97942;294;1003801;-32
2023/04/28 00:28:38;;;;;;;20.80;8.30;;;;;;;-128.00;-1.00;-1.00;97974;294;1003777;-34
2023/04/28 00:31:14;;;;;;;36.70;13.10;;;;;;;-128.00;-1.00;-1.00;97966;294;1002983;-26
2023/04/28 00:33:40;;;;;;;28.20;10.40;;;;;;;-128.00;-1.00;-1.00;97941;294;1002776;-33
2023/04/28 00:36:06;;;;;;;18.40;9.30;;;;;;;-128.00;-1.00;-1.00;97963;294;1003349;-32
2023/04/28 00:38:32;;;;;;;19.50;10.30;;;;;;;-128.00;-1.00;-1.00;98030;294;1004298;-28
2023/04/28 00:40:58;;;;;;;18.50;8.60;;;;;;;-128.00;-1.00;-1.00;97977;294;1003905;-30
2023/04/28 00:43:23;;;;;;;20.80;9.90;;;;;;;-128.00;-1.00;-1.00;97794;294;1003484;-28
2023/04/28 00:45:49;;;;;;;18.60;10.70;;;;;;;-128.00;-1.00;-1.00;97989;294;1004354;-32
2023/04/28 00:48:15;;;;;;;17.90;10.10;;;;;;;-128.00;-1.00;-1.00;98087;294;1003236;-28
2023/04/28 00:50:42;;;;;;;22.80;10.40;;;;;;;-128.00;-1.00;-1.00;97821;287;1003392;-28
2023/04/28 00:53:09;;;;;;;27.40;11.10;;;;;;;-128.00;-1.00;-1.00;97887;295;1003059;-28
2023/04/28 00:55:35;;;;;;;26.00;10.90;;;;;;;-128.00;-1.00;-1.00;97933;295;1002694;-29
2023/04/28 00:58:01;;;;;;;37.90;12.70;;;;;;;-128.00;-1.00;-1.00;98040;295;1004263;-28
2023/04/28 01:00:27;;;;;;;25.70;13.00;;;;;;;-128.00;-1.00;-1.00;97863;295;1003536;-32
2023/04/28 01:02:52;;;;;;;42.20;13.10;;;;;;;-128.00;-1.00;-1.00;97839;285;1003653;-32
2023/04/28 01:05:18;;;;;;;29.30;12.70;;;;;;;-128.00;-1.00;-1.00;97970;295;1004778;-27
2023/04/28 01:07:44;;;;;;;22.70;12.40;;;;;;;-128.00;-1.00;-1.00;97844;295;1003636;-34
2023/04/28 01:10:09;;;;;;;30.40;13.60;;;;;;;-128.00;-1.00;-1.00;97934;295;1003207;-34
2023/04/28 01:12:39;;;;;;;24.40;12.70;;;;;;;-128.00;-1.00;-1.00;97904;295;1004747;-29
2023/04/28 01:15:05;;;;;;;29.30;12.20;;;;;;;-128.00;-1.00;-1.00;97932;295;1003758;-32
2023/04/28 01:17:31;;;;;;;24.90;12.10;;;;;;;-128.00;-1.00;-1.00;97867;295;1003308;-27
2023/04/28 01:19:56;;;;;;;18.90;10.00;;;;;;;-128.00;-1.00;-1.00;97955;295;1003749;-35
2023/04/28 01:22:22;;;;;;;31.30;10.60;;;;;;;-128.00;-1.00;-1.00;97804;295;1002908;-32
2023/04/28 01:24:48;;;;;;;16.40;9.30;;;;;;;-128.00;-1.00;-1.00;97824;295;1002657;-28
2023/04/28 01:27:13;;;;;;;27.50;10.40;;;;;;;-128.00;-1.00;-1.00;97942;285;1002568;-28
2023/04/28 01:29:39;;;;;;;18.20;10.40;;;;;;;-128.00;-1.00;-1.00;97983;295;1003041;-27
2023/04/28 01:32:04;;;;;;;33.00;12.20;;;;;;;-128.00;-1.00;-1.00;97886;295;1002649;-32
2023/04/28 01:34:30;;;;;;;20.10;12.00;;;;;;;-128.00;-1.00;-1.00;97816;295;1003297;-30
2023/04/28 01:36:55;;;;;;;22.20;10.20;;;;;;;-128.00;-1.00;-1.00;97912;295;1003566;-29
2023/04/28 01:39:21;;;;;;;22.40;10.40;;;;;;;-128.00;-1.00;-1.00;97942;284;1002823;-28
2023/04/28 01:41:47;;;;;;;20.20;9.40;;;;;;;-128.00;-1.00;-1.00;97895;295;1003339;-28
2023/04/28 01:44:12;;;;;;;15.60;9.10;;;;;;;-128.00;-1.00;-1.00;97868;295;1004271;-28
2023/04/28 01:46:38;;;;;;;21.60;11.70;;;;;;;-128.00;-1.00;-1.00;97840;295;1003718;-31
2023/04/28 01:49:03;;;;;;;27.00;11.70;;;;;;;-128.00;-1.00;-1.00;97870;295;1004358;-28
2023/04/28 01:51:30;;;;;;;19.00;8.90;;;;;;;-128.00;-1.00;-1.00;97972;295;1004212;-28
2023/04/28 01:53:56;;;;;;;18.00;10.20;;;;;;;-128.00;-1.00;-1.00;98079;295;1004224;-33
2023/04/28 01:56:21;;;;;;;19.30;10.80;;;;;;;-128.00;-1.00;-1.00;97904;295;1003230;-32
2023/04/28 01:58:47;;;;;;;21.50;10.10;;;;;;;-128.00;-1.00;-1.00;97991;295;1004065;-32
2023/04/28 02:01:12;;;;;;;24.50;11.20;;;;;;;-128.00;-1.00;-1.00;97927;285;1003057;-28
2023/04/28 02:03:38;;;;;;;18.90;9.40;;;;;;;-128.00;-1.00;-1.00;98028;295;1004366;-28
2023/04/28 02:06:04;;;;;;;17.50;9.60;;;;;;;-128.00;-1.00;-1.00;97816;295;1004349;-28
2023/04/28 02:08:30;;;;;;;20.60;10.50;;;;;;;-128.00;-1.00;-1.00;98006;295;1004305;-29
2023/04/28 02:10:56;;;;;;;32.30;11.80;;;;;;;-128.00;-1.00;-1.00;97846;295;1003667;-28
2023/04/28 02:13:22;;;;;;;19.60;10.40;;;;;;;-128.00;-1.00;-1.00;98021;295;1004287;-32
2023/04/28 02:15:48;;;;;;;22.30;10.60;;;;;;;-128.00;-1.00;-1.00;98090;295;1004510;-32
2023/04/28 02:18:14;;;;;;;27.30;11.50;;;;;;;-128.00;-1.00;-1.00;97849;284;1004147;-34
2023/04/28 02:20:40;;;;;;;20.40;10.90;;;;;;;-128.00;-1.00;-1.00;97955;295;1003261;-32
2023/04/28 02:23:05;;;;;;;25.70;12.60;;;;;;;-128.00;-1.00;-1.00;97968;285;1003673;-28
2023/04/28 02:25:31;;;;;;;25.40;11.10;;;;;;;-128.00;-1.00;-1.00;97849;295;1004709;-28
2023/04/28 02:27:56;;;;;;;31.60;12.60;;;;;;;-128.00;-1.00;-1.00;97958;295;1005429;-35
2023/04/28 02:30:22;;;;;;;21.70;11.00;;;;;;;-128.00;-1.00;-1.00;97943;284;1003058;-32
2023/04/28 02:32:48;;;;;;;29.90;12.70;;;;;;;-128.00;-1.00;-1.00;97929;295;1003147;-28
2023/04/28 02:35:13;;;;;;;25.30;11.40;;;;;;;-128.00;-1.00;-1.00;97930;295;1005005;-29
2023/04/28 02:37:39;;;;;;;25.50;12.20;;;;;;;-128.00;-1.00;-1.00;97908;295;1005555;-33
2023/04/28 02:40:06;;;;;;;24.60;13.20;;;;;;;-128.00;-1.00;-1.00;97843;295;1002880;-32
2023/04/28 02:42:31;;;;;;;30.00;13.50;;;;;;;-128.00;-1.00;-1.00;98027;295;1004331;-32
2023/04/28 02:44:57;;;;;;;24.80;12.70;;;;;;;-128.00;-1.00;-1.00;97829;295;1003333;-30
2023/04/28 02:47:22;;;;;;;25.50;14.50;;;;;;;-128.00;-1.00;-1.00;97931;296;1003403;-32
2023/04/28 02:49:49;;;;;;;40.80;15.90;;;;;;;-128.00;-1.00;-1.00;97916;294;1003480;-32
2023/04/28 02:52:15;;;;;;;33.50;13.70;;;;;;;-128.00;-1.00;-1.00;97989;294;1003606;-30
2023/04/28 02:54:41;;;;;;;26.40;11.60;;;;;;;-128.00;-1.00;-1.00;97818;295;1004095;-28
2023/04/28 02:57:06;;;;;;;20.20;11.10;;;;;;;-128.00;-1.00;-1.00;97788;294;1002748;-28
2023/04/28 02:59:32;;;;;;;20.00;11.40;;;;;;;-128.00;-1.00;-1.00;97998;294;1003298;-33
2023/04/28 03:01:58;;;;;;;22.80;12.00;;;;;;;-128.00;-1.00;-1.00;97962;294;1003952;-34
2023/04/28 03:04:23;;;;;;;21.40;10.60;;;;;;;-128.00;-1.00;-1.00;98096;294;1002964;-33
2023/04/28 03:06:49;;;;;;;22.00;10.60;;;;;;;-128.00;-1.00;-1.00;97953;294;1003913;-34
2023/04/28 03:09:15;;;;;;;22.10;10.40;;;;;;;-128.00;-1.00;-1.00;97793;294;1003489;-29
2023/04/28 03:11:40;;;;;;;13.10;8.30;;;;;;;-128.00;-1.00;-1.00;97931;294;1003722;-28
2023/04/28 03:14:06;;;;;;;19.80;12.30;;;;;;;-128.00;-1.00;-1.00;97864;294;1003133;-28
2023/04/28 03:16:32;;;;;;;23.10;12.90;;;;;;;-128.00;-1.00;-1.00;97916;296;1003867;-30
2023/04/28 03:18:58;;;;;;;31.20;15.10;;;;;;;-128.00;-1.00;-1.00;98001;294;1004069;-33
2023/04/28 03:21:26;;;;;;;28.20;12.60;;;;;;;-128.00;-1.00;-1.00;98076;287;1002966;-31
2023/04/28 03:23:52;;;;;;;18.60;10.00;;;;;;;-128.00;-1.00;-1.00;97929;294;1004625;-33
2023/04/28 03:26:18;;;;;;;26.30;12.50;;;;;;;-128.00;-1.00;-1.00;97941;294;1004112;-33
2023/04/28 03:28:44;;;;;;;22.90;13.90;;;;;;;-128.00;-1.00;-1.00;97984;294;1004115;-32
2023/04/28 03:31:09;;;;;;;31.40;16.10;;;;;;;-128.00;-1.00;-1.00;97982;294;1003465;-29
2023/04/28 03:33:35;;;;;;;21.50;14.40;;;;;;;-128.00;-1.00;-1.00;97853;295;1003013;-33
2023/04/28 03:36:01;;;;;;;23.30;14.90;;;;;;;-128.00;-1.00;-1.00;97941;294;1003216;-32
2023/04/28 03:38:26;;;;;;;30.00;14.40;;;;;;;-128.00;-1.00;-1.00;97846;294;1004154;-32
2023/04/28 03:40:52;;;;;;;27.60;13.20;;;;;;;-128.00;-1.00;-1.00;97984;294;1002833;-28
2023/04/28 03:43:18;;;;;;;22.40;11.10;;;;;;;-128.00;-1.00;-1.00;97915;294;1003181;-28
2023/04/28 03:45:43;;;;;;;26.10;9.60;;;;;;;-128.00;-1.00;-1.00;97914;294;1003973;-29
2023/04/28 03:48:09;;;;;;;15.60;9.60;;;;;;;-128.00;-1.00;-1.00;97891;294;1004081;-33
2023/04/28 03:50:34;;;;;;;24.90;11.50;;;;;;;-128.00;-1.00;-1.00;97858;294;1004290;-33
2023/04/28 03:53:01;;;;;;;22.90;13.10;;;;;;;-128.00;-1.00;-1.00;97991;294;1004565;-29
2023/04/28 03:55:26;;;;;;;32.10;15.70;;;;;;;-128.00;-1.00;-1.00;97965;294;1002852;-28
2023/04/28 03:57:52;;;;;;;57.80;28.10;;;;;;;-128.00;-1.00;-1.00;97833;294;1003767;-33
2023/04/28 04:00:17;;;;;;;76.30;32.10;;;;;;;-128.00;-1.00;-1.00;97877;294;1003843;-29
2023/04/28 04:02:43;;;;;;;64.90;30.90;;;;;;;-128.00;-1.00;-1.00;97807;294;1003391;-29
2023/04/28 04:05:09;;;;;;;24.70;14.00;;;;;;;-128.00;-1.00;-1.00;97862;295;1003556;-30
2023/04/28 04:07:35;;;;;;;14.40;8.30;;;;;;;-128.00;-1.00;-1.00;98111;294;1003840;-33
2023/04/28 04:10:00;;;;;;;27.90;11.00;;;;;;;-128.00;-1.00;-1.00;97893;294;1003655;-33
2023/04/28 04:12:26;;;;;;;18.10;10.70;;;;;;;-128.00;-1.00;-1.00;97962;296;1003380;-28
2023/04/28 04:14:51;;;;;;;26.40;9.70;;;;;;;-128.00;-1.00;-1.00;97883;294;1003031;-29
2023/04/28 04:17:17;;;;;;;23.30;8.60;;;;;;;-128.00;-1.00;-1.00;97991;294;1004332;-32
2023/04/28 04:19:43;;;;;;;16.20;7.80;;;;;;;-128.00;-1.00;-1.00;97840;294;1003204;-32
2023/04/28 04:22:08;;;;;;;13.40;8.50;;;;;;;-128.00;-1.00;-1.00;97850;283;1003048;-34
2023/04/28 04:24:34;;;;;;;17.20;7.60;;;;;;;-128.00;-1.00;-1.00;97837;294;1004105;-28
2023/04/28 04:27:00;;;;;;;23.90;15.50;;;;;;;-128.00;-1.00;-1.00;97836;283;1004862;-33
2023/04/28 04:29:26;;;;;;;21.80;12.50;;;;;;;-128.00;-1.00;-1.00;97906;294;1003267;-34
2023/04/28 04:31:51;;;;;;;46.20;24.80;;;;;;;-128.00;-1.00;-1.00;97868;294;1004760;-32
2023/04/28 04:34:17;;;;;;;150.60;71.50;;;;;;;-128.00;-1.00;-1.00;97944;294;1003218;-29
2023/04/28 04:36:43;;;;;;;127.40;68.00;;;;;;;-128.00;-1.00;-1.00;97954;294;1004525;-28
2023/04/28 04:39:08;;;;;;;20.10;10.60;;;;;;;-128.00;-1.00;-1.00;97788;294;1002716;-32
2023/04/28 05:17:55;;;;;;;11.10;7.70;;;;;;;-101.58;17.37;19956.27;98271;283;1544173;-32
2023/04/28 05:20:22;;;;;;;9.40;7.30;;;;;;;-128.00;-1.00;-1.00;97652;294;1003046;-29
2023/04/28 05:22:48;;;;;;;11.40;7.80;;;;;;;-128.00;-1.00;-1.00;98012;294;1003057;-29
2023/04/28 05:25:14;;;;;;;11.60;6.70;;;;;;;-128.00;-1.00;-1.00;97879;294;1004405;-28
2023/04/28 05:27:39;;;;;;;19.60;8.10;;;;;;;-128.00;-1.00;-1.00;98054;294;1004983;-32
2023/04/28 05:30:06;;;;;;;14.90;7.90;;;;;;;-128.00;-1.00;-1.00;97865;296;1004751;-34
2023/04/28 05:32:33;;;;;;;17.50;9.00;;;;;;;-128.00;-1.00;-1.00;97982;295;1003569;-29
2023/04/28 05:34:59;;;;;;;13.30;6.50;;;;;;;-128.00;-1.00;-1.00;97950;294;1002931;-33
2023/04/28 05:37:24;;;;;;;13.90;8.60;;;;;;;-128.00;-1.00;-1.00;97890;294;1002816;-34
2023/04/28 05:39:50;;;;;;;12.90;8.00;;;;;;;-128.00;-1.00;-1.00;97868;294;1004241;-34
2023/04/28 05:42:16;;;;;;;13.50;9.50;;;;;;;-128.00;-1.00;-1.00;98109;295;1003457;-34
2023/04/28 05:44:42;;;;;;;18.50;10.00;;;;;;;-128.00;-1.00;-1.00;97927;294;1002297;-34
2023/04/28 05:47:07;;;;;;;16.60;9.20;;;;;;;-128.00;-1.00;-1.00;97855;287;1005479;-34
2023/04/28 05:49:33;;;;;;;20.70;13.10;;;;;;;-128.00;-1.00;-1.00;97868;295;1003733;-34
2023/04/28 05:51:58;;;;;;;18.10;9.90;;;;;;;-128.00;-1.00;-1.00;97861;294;1003012;-33
2023/04/28 05:54:24;;;;;;;23.20;10.50;;;;;;;-128.00;-1.00;-1.00;97910;294;1002988;-29
2023/04/28 05:56:50;;;;;;;21.30;9.60;;;;;;;-128.00;-1.00;-1.00;97806;294;1002698;-33
2023/04/28 05:59:15;;;;;;;24.10;10.20;;;;;;;-128.00;-1.00;-1.00;97792;284;1004687;-33
2023/04/28 06:01:41;;;;;;;15.30;9.70;;;;;;;-128.00;-1.00;-1.00;97824;295;1003929;-35
2023/04/28 06:04:07;;;;;;;25.00;9.40;;;;;;;-128.00;-1.00;-1.00;97910;283;1003277;-34
2023/04/28 06:06:33;;;;;;;17.50;8.40;;;;;;;-128.00;-1.00;-1.00;97898;295;1002787;-30
2023/04/28 06:08:59;;;;;;;17.30;10.10;;;;;;;-128.00;-1.00;-1.00;97920;294;1002851;-30
2023/04/28 06:11:25;;;;;;;20.40;9.60;;;;;;;-128.00;-1.00;-1.00;97919;294;1002926;-29
2023/04/28 06:13:50;;;;;;;26.10;10.30;;;;;;;-128.00;-1.00;-1.00;97783;294;1004246;-30
2023/04/28 06:16:16;;;;;;;18.40;9.50;;;;;;;-128.00;-1.00;-1.00;97780;296;1003483;-33
2023/04/28 06:18:42;;;;;;;16.80;10.10;;;;;;;-128.00;-1.00;-1.00;97814;294;1002672;-33
2023/04/28 06:21:08;;;;;;;25.50;9.50;;;;;;;-128.00;-1.00;-1.00;97912;295;1003275;-31
2023/04/28 06:23:34;;;;;;;11.00;8.30;;;;;;;-128.00;-1.00;-1.00;97858;295;1003440;-29
2023/04/28 06:26:00;;;;;;;14.80;7.80;;;;;;;-128.00;-1.00;-1.00;97817;295;1003093;-28
2023/04/28 06:28:26;;;;;;;15.10;8.20;;;;;;;-128.00;-1.00;-1.00;97868;295;1004012;-33
2023/04/28 06:30:52;;;;;;;13.50;8.20;;;;;;;-128.00;-1.00;-1.00;97866;295;1003047;-29
2023/04/28 06:33:17;;;;;;;28.70;11.60;;;;;;;-128.00;-1.00;-1.00;97825;285;1004257;-33
2023/04/28 06:35:43;;;;;;;34.70;13.70;;;;;;;-128.00;-1.00;-1.00;97864;295;1002804;-34
2023/04/28 06:38:08;;;;;;;26.80;14.10;;;;;;;-128.00;-1.00;-1.00;97813;285;1003316;-37
2023/04/28 06:40:34;;;;;;;18.80;9.70;;;;;;;-128.00;-1.00;-1.00;97869;285;1003546;-28
2023/04/28 06:43:00;;;;;;;17.70;10.90;;;;;;;-128.00;-1.00;-1.00;97771;295;1003432;-34
2023/04/28 06:45:25;;;;;;;28.90;12.70;;;;;;;-128.00;-1.00;-1.00;97956;295;1002740;-35
2023/04/28 06:47:54;;;;;;;21.50;11.40;;;;;;;-128.00;-1.00;-1.00;97956;295;1003385;-29
2023/04/28 06:50:21;;;;;;;19.30;9.00;;;;;;;-128.00;-1.00;-1.00;97768;295;1002893;-34
2023/04/28 06:52:46;;;;;;;15.70;9.20;;;;;;;-128.00;-1.00;-1.00;97881;295;1003799;-33
2023/04/28 06:55:14;;;;;;;22.60;11.50;;;;;;;-128.00;-1.00;-1.00;97894;295;1003162;-35
2023/04/28 06:57:41;;;;;;;21.20;11.40;;;;;;;-128.00;-1.00;-1.00;97881;295;1003167;-34
2023/04/28 07:00:07;;;;;;;22.70;11.70;;;;;;;-128.00;-1.00;-1.00;97828;295;1003209;-34
2023/04/28 07:02:34;;;;;;;34.90;12.30;;;;;;;-128.00;-1.00;-1.00;97958;295;1003200;-30
2023/04/28 07:04:59;;;;;;;18.60;10.90;;;;;;;-128.00;-1.00;-1.00;97897;295;1003123;-35
2023/04/28 07:07:25;;;;;;;25.50;9.90;;;;;;;-128.00;-1.00;-1.00;97958;295;1005555;-34
2023/04/28 07:09:52;;;;;;;14.40;8.90;;;;;;;-128.00;-1.00;-1.00;97937;295;1002880;-35
2023/04/28 07:12:18;;;;;;;18.60;9.50;;;;;;;-128.00;-1.00;-1.00;97939;295;1002950;-31
2023/04/28 07:14:44;;;;;;;27.20;10.10;;;;;;;-128.00;-1.00;-1.00;97947;295;1005437;-30
2023/04/28 07:17:10;;;;;;;17.70;8.20;;;;;;;-128.00;-1.00;-1.00;97968;295;1002734;-30
2023/04/28 07:19:35;;;;;;;11.80;8.30;;;;;;;-128.00;-1.00;-1.00;97868;295;1003456;-31
2023/04/28 07:22:02;;;;;;;9.80;6.30;;;;;;;-128.00;-1.00;-1.00;97933;295;1003324;-30
2023/04/28 07:24:27;;;;;;;13.80;7.20;;;;;;;-128.00;-1.00;-1.00;97919;295;1003549;-30
2023/04/28 07:26:53;;;;;;;14.30;8.40;;;;;;;-128.00;-1.00;-1.00;97856;295;1003278;-34
2023/04/28 07:29:19;;;;;;;11.70;6.30;;;;;;;-128.00;-1.00;-1.00;97940;295;1003488;-31
2023/04/28 07:31:45;;;;;;;17.30;9.00;;;;;;;-128.00;-1.00;-1.00;97900;295;1004984;-32
2023/04/28 07:34:10;;;;;;;10.30;6.50;;;;;;;-128.00;-1.00;-1.00;97877;295;1002795;-37
2023/04/28 07:36:36;;;;;;;12.40;5.90;;;;;;;-128.00;-1.00;-1.00;97905;284;1003919;-35
2023/04/28 07:39:02;;;;;;;12.00;6.10;;;;;;;-128.00;-1.00;-1.00;97835;285;1002900;-30
2023/04/28 07:41:28;;;;;;;10.40;5.30;;;;;;;-128.00;-1.00;-1.00;97917;295;1003463;-35
2023/04/28 07:43:54;;;;;;;12.10;7.70;;;;;;;-128.00;-1.00;-1.00;97896;284;1003094;-31
2023/04/28 07:46:19;;;;;;;16.90;8.70;;;;;;;-128.00;-1.00;-1.00;97877;285;1004040;-31
2023/04/28 07:48:45;;;;;;;9.60;6.30;;;;;;;-128.00;-1.00;-1.00;97924;295;1003539;-30
2023/04/28 07:51:10;;;;;;;13.00;6.80;;;;;;;-128.00;-1.00;-1.00;97848;295;1005593;-33
2023/04/28 07:53:36;;;;;;;30.30;15.30;;;;;;;-128.00;-1.00;-1.00;97823;296;1003757;-35
2023/04/28 07:56:02;;;;;;;20.70;10.60;;;;;;;-128.00;-1.00;-1.00;97825;296;1003676;-35
2023/04/28 07:58:28;;;;;;;27.70;12.60;;;;;;;-128.00;-1.00;-1.00;97889;295;1002884;-30
2023/04/28 08:00:54;;;;;;;26.00;11.90;;;;;;;-128.00;-1.00;-1.00;97946;295;1005358;-31
2023/04/28 08:03:20;;;;;;;15.50;6.80;;;;;;;-128.00;-1.00;-1.00;97785;295;1004426;-31
2023/04/28 08:05:46;;;;;;;15.20;8.80;;;;;;;-128.00;-1.00;-1.00;97885;295;1003069;-34
2023/04/28 08:08:11;;;;;;;15.60;8.90;;;;;;;-128.00;-1.00;-1.00;97798;295;1004737;-34
2023/04/28 08:10:40;;;;;;;14.00;6.10;;;;;;;-128.00;-1.00;-1.00;97943;295;1003267;-34
2023/04/28 08:13:06;;;;;;;9.40;5.60;;;;;;;-128.00;-1.00;-1.00;97879;285;1003690;-34
2023/04/28 08:15:32;;;;;;;10.40;4.40;;;;;;;-128.00;-1.00;-1.00;97946;295;1004260;-31
2023/04/28 08:17:58;;;;;;;7.80;4.20;;;;;;;-128.00;-1.00;-1.00;97907;295;1002924;-37
2023/04/28 08:20:24;;;;;;;8.20;4.60;;;;;;;-128.00;-1.00;-1.00;97969;295;1003803;-35
2023/04/28 08:22:50;;;;;;;4.80;3.40;;;;;;;-128.00;-1.00;-1.00;97964;295;1003334;-31
2023/04/28 08:25:17;;;;;;;5.80;4.20;;;;;;;-128.00;-1.00;-1.00;97805;295;1004617;-31
2023/04/28 08:27:42;;;;;;;6.20;3.50;;;;;;;-128.00;-1.00;-1.00;97910;295;1003065;-35
2023/04/28 08:30:09;;;;;;;4.40;3.30;;;;;;;-128.00;-1.00;-1.00;97863;295;1003267;-34
2023/04/28 08:32:34;;;;;;;6.30;4.20;;;;;;;-128.00;-1.00;-1.00;97869;295;1002516;-30
2023/04/28 08:35:00;;;;;;;5.00;2.60;;;;;;;-128.00;-1.00;-1.00;97874;287;1003434;-30
2023/04/28 08:37:26;;;;;;;9.90;4.50;;;;;;;-128.00;-1.00;-1.00;97895;295;1003732;-35
2023/04/28 08:40:00;;;;;;;5.90;3.90;;;;;;;-128.00;-1.00;-1.00;97876;285;1002998;-30
2023/04/28 08:42:30;;;;;;;11.60;5.60;;;;;;;-128.00;-1.00;-1.00;97896;295;1003440;-35
2023/04/28 08:44:58;;;;;;;11.00;5.20;;;;;;;-128.00;-1.00;-1.00;97915;295;1003080;-35
2023/04/28 08:47:32;;;;;;;7.00;4.10;;;;;;;-128.00;-1.00;-1.00;97861;285;1002973;-38
2023/04/28 08:50:03;;;;;;;11.90;4.20;;;;;;;-128.00;-1.00;-1.00;97952;295;1004081;-35
2023/04/28 08:52:29;;;;;;;11.60;6.00;;;;;;;-128.00;-1.00;-1.00;97892;295;1003095;-35
2023/04/28 08:54:56;;;;;;;7.20;4.50;;;;;;;-128.00;-1.00;-1.00;97914;295;1003893;-31
2023/04/28 08:57:21;;;;;;;16.10;5.60;;;;;;;-128.00;-1.00;-1.00;97915;295;1002541;-31
2023/04/28 08:59:47;;;;;;;8.10;5.00;;;;;;;-128.00;-1.00;-1.00;97902;295;1003101;-35
2023/04/28 09:02:13;;;;;;;7.90;4.50;;;;;;;-128.00;-1.00;-1.00;98020;295;1004331;-31
2023/04/28 09:04:38;;;;;;;11.50;3.60;;;;;;;-128.00;-1.00;-1.00;97843;295;1003241;-35
2023/04/28 09:07:10;;;;;;;5.70;3.50;;;;;;;-128.00;-1.00;-1.00;97850;295;1004450;-35
2023/04/28 09:09:35;;;;;;;6.80;3.60;;;;;;;-128.00;-1.00;-1.00;97916;295;1003246;-30
2023/04/28 09:12:02;;;;;;;3.90;2.80;;;;;;;-128.00;-1.00;-1.00;97808;295;1003581;-30
2023/04/28 09:14:30;;;;;;;5.50;3.50;;;;;;;-128.00;-1.00;-1.00;97920;295;1003520;-35
2023/04/28 09:16:56;;;;;;;7.70;4.00;;;;;;;-128.00;-1.00;-1.00;97825;295;1004648;-35
2023/04/28 09:19:21;;;;;;;6.70;3.30;;;;;;;-128.00;-1.00;-1.00;97810;295;1003135;-35
2023/04/28 09:21:51;;;;;;;10.20;2.20;;;;;;;-128.00;-1.00;-1.00;97844;295;1003080;-37
2023/04/28 09:24:26;;;;;;;4.00;3.00;;;;;;;-128.00;-1.00;-1.00;97894;285;1003293;-34
2023/04/28 09:26:52;;;;;;;5.50;2.40;;;;;;;-128.00;-1.00;-1.00;97860;295;1004398;-32
2023/04/28 09:29:17;;;;;;;9.00;2.60;;;;;;;-128.00;-1.00;-1.00;97903;285;1002835;-35
2023/04/28 09:31:43;;;;;;;4.10;2.90;;;;;;;-128.00;-1.00;-1.00;97855;295;1003844;-30
2023/04/28 09:34:10;;;;;;;4.10;2.60;;;;;;;-128.00;-1.00;-1.00;97857;295;1004327;-35
2023/04/28 09:36:36;;;;;;;5.40;3.10;;;;;;;-128.00;-1.00;-1.00;97922;284;1003442;-31
2023/04/28 09:39:02;;;;;;;3.40;2.90;;;;;;;-128.00;-1.00;-1.00;97893;285;1003250;-33
2023/04/28 09:41:41;;;;;;;4.00;3.20;;;;;;;-128.00;-1.00;-1.00;97943;295;1003305;-35
2023/04/28 09:44:14;;;;;;;4.60;2.80;;;;;;;-128.00;-1.00;-1.00;97872;295;1002871;-35
2023/04/28 09:46:41;;;;;;;6.00;3.30;;;;;;;-128.00;-1.00;-1.00;97844;295;1002535;-31
2023/04/28 09:49:07;;;;;;;5.00;3.30;;;;;;;-128.00;-1.00;-1.00;97931;295;1004989;-35
2023/04/28 09:51:34;;;;;;;9.10;3.80;;;;;;;-128.00;-1.00;-1.00;97965;288;1003296;-34
2023/04/28 09:54:01;;;;;;;8.20;3.00;;;;;;;-128.00;-1.00;-1.00;97930;295;1003109;-34
2023/04/28 09:56:28;;;;;;;4.90;2.70;;;;;;;-128.00;-1.00;-1.00;97212;295;1003052;-35
2023/04/28 09:58:54;;;;;;;3.90;2.70;;;;;;;-128.00;-1.00;-1.00;97802;295;1002537;-35
2023/04/28 10:01:19;;;;;;;3.90;2.40;;;;;;;-128.00;-1.00;-1.00;97831;295;1003992;-31
2023/04/28 10:03:45;;;;;;;7.50;2.50;;;;;;;-128.00;-1.00;-1.00;97937;295;1003681;-34
2023/04/28 10:06:13;;;;;;;4.90;2.80;;;;;;;-128.00;-1.00;-1.00;97874;295;1002542;-32
2023/04/28 10:08:39;;;;;;;11.00;3.80;;;;;;;-128.00;-1.00;-1.00;97975;295;1002451;-34
2023/04/28 10:11:05;;;;;;;3.00;2.30;;;;;;;-128.00;-1.00;-1.00;97942;295;1002878;-35
2023/04/28 10:13:31;;;;;;;15.30;2.40;;;;;;;-128.00;-1.00;-1.00;97783;295;1003294;-34
2023/04/28 10:15:57;;;;;;;13.30;3.00;;;;;;;-128.00;-1.00;-1.00;97871;295;1003539;-35
2023/04/28 10:18:23;;;;;;;2.90;2.00;;;;;;;-128.00;-1.00;-1.00;97887;295;1003205;-30
2023/04/28 10:20:56;;;;;;;6.60;3.10;;;;;;;-128.00;-1.00;-1.00;97821;295;1003546;-31
2023/04/28 10:23:39;;;;;;;4.30;2.20;;;;;;;-128.00;-1.00;-1.00;97863;295;1003654;-32
2023/04/28 10:26:09;;;;;;;;;;;;;;;-128.00;-1.00;-1.00;97939;295;1003384;-34
2023/04/28 10:28:35;;;;;;;2.10;1.80;;;;;;;-128.00;-1.00;-1.00;97808;295;1003805;-34
2023/04/28 10:31:13;;;;;;;4.60;1.90;;;;;;;-128.00;-1.00;-1.00;97812;295;1003148;-30
2023/04/28 10:33:39;;;;;;;2.60;2.00;;;;;;;-128.00;-1.00;-1.00;97806;295;1003901;-34
2023/04/28 10:36:06;;;;;;;3.50;2.10;;;;;;;-128.00;-1.00;-1.00;97978;295;1003296;-31
2023/04/28 10:38:32;;;;;;;3.30;2.00;;;;;;;-128.00;-1.00;-1.00;97873;295;1002987;-35
2023/04/28 10:41:01;;;;;;;4.50;2.00;;;;;;;-128.00;-1.00;-1.00;97815;284;1003379;-35
2023/04/28 10:43:32;;;;;;;5.20;2.00;;;;;;;-128.00;-1.00;-1.00;97903;295;1002922;-35
2023/04/28 10:46:00;;;;;;;3.70;2.00;;;;;;;-128.00;-1.00;-1.00;97810;295;1004469;-30
2023/04/28 10:48:54;;;;;;;5.80;1.90;;;;;;;-128.00;-1.00;-1.00;98068;295;1005432;-30
2023/04/28 10:51:21;;;;;;;7.30;2.00;;;;;;;-128.00;-1.00;-1.00;97879;295;1003671;-30
2023/04/28 10:54:06;;;;;;;4.40;1.60;;;;;;;-128.00;-1.00;-1.00;97878;295;1003576;-34
2023/04/28 10:56:32;;;;;;;3.90;1.60;;;;;;;-128.00;-1.00;-1.00;98011;295;1002916;-34
2023/04/28 10:58:58;;;;;;;3.10;2.30;;;;;;;-128.00;-1.00;-1.00;97915;284;1005360;-32
2023/04/28 11:01:28;;;;;;;2.40;1.80;;;;;;;-128.00;-1.00;-1.00;97819;295;1003074;-36
2023/04/28 11:47:30;;;;;;;6.80;3.90;;;;;;;-98.22;5.00;19888.33;98296;293;1546418;-35
2023/04/28 11:49:57;;;;;;;3.40;1.60;;;;;;;-128.00;-1.00;-1.00;96160;292;1537489;-34
2023/04/28 11:52:24;;;;;;;7.20;1.80;;;;;;;-128.00;-1.00;-1.00;98080;290;1003789;-30
2023/04/28 11:54:55;;;;;;;2.90;2.10;;;;;;;-128.00;-1.00;-1.00;96727;293;1004918;-33
2023/04/28 11:57:21;;;;;;;6.50;2.20;;;;;;;-128.00;-1.00;-1.00;97349;293;1003047;-34
2023/04/28 11:59:46;;;;;;;3.20;1.90;;;;;;;-128.00;-1.00;-1.00;98081;293;1003953;-36
2023/04/28 12:02:12;;;;;;;4.70;1.80;;;;;;;-128.00;-1.00;-1.00;98066;293;1002588;-34
2023/04/28 12:04:42;;;;;;;2.40;2.10;;;;;;;-128.00;-1.00;-1.00;97955;293;1004583;-37
2023/04/28 12:07:10;;;;;;;1.60;1.10;;;;;;;-128.00;-1.00;-1.00;97675;287;1004501;-29
2023/04/28 12:09:40;;;;;;;5.80;4.50;;;;;;;-128.00;-1.00;-1.00;97187;293;1004714;-31
2023/04/28 12:12:08;;;;;;;3.00;1.30;;;;;;;-128.00;-1.00;-1.00;97915;293;1004486;-31
2023/04/28 12:14:58;;;;;;;6.00;1.70;;;;;;;-128.00;-1.00;-1.00;97682;281;1004142;-35
2023/04/28 12:17:25;;;;;;;6.10;1.00;;;;;;;-128.00;-1.00;-1.00;97996;290;1005449;-35
2023/04/28 12:19:52;;;;;;;4.00;1.70;;;;;;;-128.00;-1.00;-1.00;97831;293;1005781;-35
2023/04/28 12:22:18;;;;;;;2.10;1.40;;;;;;;-128.00;-1.00;-1.00;97836;293;1004115;-31
2023/04/28 12:24:44;;;;;;;3.40;1.60;;;;;;;-128.00;-1.00;-1.00;97310;293;1003235;-29
2023/04/28 12:27:15;;;;;;;8.20;3.80;;;;;;;-128.00;-1.00;-1.00;98044;293;1003206;-38
2023/04/28 12:29:42;;;;;;;3.00;1.30;;;;;;;-128.00;-1.00;-1.00;98072;293;1003205;-30
2023/04/28 12:32:09;;;;;;;2.20;1.40;;;;;;;-128.00;-1.00;-1.00;97949;293;1003109;-29
2023/04/28 12:34:35;;;;;;;5.10;2.00;;;;;;;-128.00;-1.00;-1.00;98098;293;1002818;-30
2023/04/28 12:37:02;;;;;;;10.00;8.60;;;;;;;-128.00;-1.00;-1.00;97985;293;1003198;-35
2023/04/28 12:39:28;;;;;;;3.20;2.30;;;;;;;-128.00;-1.00;-1.00;98073;293;1004004;-34
2023/04/28 12:41:54;;;;;;;2.70;1.80;;;;;;;-128.00;-1.00;-1.00;98032;293;1004185;-34